SPJOT EPKK-EPKK
Flight info
| Callsign | SPJOT |
|---|---|
| Flight time | 1h 3m |
| Altitude | 2000 |
| Route | DCT |
| Aircraft | DA40/L-SDGRY/S |
Departure
| Time | 2026-05-05 16:05 |
|---|---|
| Airport | Kraków John Paul II International Airport (EPKK) |
Arrival
| Time | 2026-05-05 17:08 |
|---|---|
| Airport | Kraków John Paul II International Airport (EPKK) |
| Time | Latitude | Longitude | Altitude | Speed | Heading |
|---|---|---|---|---|---|
| 2026-05-05 15:36 | 50.07697 | 19.80119 | 783 ft | 0 kts | 347° |
| 2026-05-05 15:48 | 50.07721 | 19.80110 | 783 ft | 9 kts | 348° |
| 2026-05-05 15:49 | 50.07739 | 19.80099 | 783 ft | 2 kts | 310° |
| 2026-05-05 15:49 | 50.07736 | 19.80037 | 783 ft | 14 kts | 257° |
| 2026-05-05 15:49 | 50.07720 | 19.79920 | 783 ft | 0 kts | 258° |
| 2026-05-05 15:51 | 50.07714 | 19.79881 | 783 ft | 9 kts | 257° |
| 2026-05-05 15:51 | 50.07693 | 19.79730 | 783 ft | 17 kts | 258° |
| 2026-05-05 15:52 | 50.07667 | 19.79542 | 783 ft | 18 kts | 258° |
| 2026-05-05 15:52 | 50.07639 | 19.79340 | 783 ft | 20 kts | 257° |
| 2026-05-05 15:52 | 50.07618 | 19.79173 | 783 ft | 6 kts | 269° |
| 2026-05-05 15:52 | 50.07622 | 19.79147 | 783 ft | 2 kts | 299° |
| 2026-05-05 15:53 | 50.07634 | 19.79129 | 783 ft | 3 kts | 328° |
| 2026-05-05 15:53 | 50.07677 | 19.79113 | 783 ft | 13 kts | 351° |
| 2026-05-05 15:53 | 50.07756 | 19.79087 | 783 ft | 0 kts | 347° |
| 2026-05-05 16:03 | 50.07785 | 19.79077 | 783 ft | 9 kts | 348° |
| 2026-05-05 16:03 | 50.07837 | 19.79064 | 784 ft | 1 kts | 348° |
| 2026-05-05 16:03 | 50.07851 | 19.79036 | 784 ft | 6 kts | 277° |
| 2026-05-05 16:03 | 50.07851 | 19.79025 | 784 ft | 0 kts | 260° |
| 2026-05-05 16:04 | 50.07847 | 19.78995 | 784 ft | 18 kts | 257° |
| 2026-05-05 16:04 | 50.07780 | 19.78516 | 784 ft | 69 kts | 258° |
| 2026-05-05 16:04 | 50.07673 | 19.77672 | 893 ft | 87 kts | 248° |
| 2026-05-05 16:05 | 50.07522 | 19.76709 | 1085 ft | 94 kts | 251° |
| 2026-05-05 16:05 | 50.07375 | 19.75702 | 1299 ft | 99 kts | 240° |
| 2026-05-05 16:05 | 50.06801 | 19.75163 | 1429 ft | 104 kts | 177° |
| 2026-05-05 16:05 | 50.06075 | 19.75403 | 1606 ft | 109 kts | 168° |
| 2026-05-05 16:06 | 50.05406 | 19.76020 | 1643 ft | 129 kts | 125° |
| 2026-05-05 16:06 | 50.05424 | 19.77500 | 1497 ft | 147 kts | 77° |
| 2026-05-05 16:06 | 50.05658 | 19.79007 | 1637 ft | 143 kts | 81° |
| 2026-05-05 16:06 | 50.05800 | 19.80012 | 1712 ft | 144 kts | 81° |
| 2026-05-05 16:07 | 50.06025 | 19.81540 | 1822 ft | 145 kts | 80° |
| 2026-05-05 16:07 | 50.06289 | 19.83047 | 1967 ft | 146 kts | 80° |
| 2026-05-05 16:07 | 50.06522 | 19.84607 | 1912 ft | 155 kts | 83° |
| 2026-05-05 16:07 | 50.06768 | 19.86130 | 1725 ft | 130 kts | 82° |
| 2026-05-05 16:08 | 50.06979 | 19.87430 | 1608 ft | 118 kts | 82° |
| 2026-05-05 16:08 | 50.07173 | 19.88674 | 1506 ft | 128 kts | 83° |
| 2026-05-05 16:08 | 50.07396 | 19.90103 | 1510 ft | 141 kts | 79° |
| 2026-05-05 16:08 | 50.08059 | 19.91281 | 1405 ft | 157 kts | 22° |
| 2026-05-05 16:09 | 50.09011 | 19.91364 | 1379 ft | 122 kts | 348° |
| 2026-05-05 16:09 | 50.09695 | 19.90814 | 1330 ft | 115 kts | 292° |
| 2026-05-05 16:09 | 50.09595 | 19.89620 | 1309 ft | 118 kts | 245° |
| 2026-05-05 16:09 | 50.09295 | 19.88574 | 1319 ft | 94 kts | 242° |
| 2026-05-05 16:10 | 50.09105 | 19.87685 | 1265 ft | 79 kts | 250° |
| 2026-05-05 16:10 | 50.08962 | 19.86853 | 1266 ft | 81 kts | 251° |
| 2026-05-05 16:10 | 50.08832 | 19.85929 | 1257 ft | 89 kts | 252° |
| 2026-05-05 16:10 | 50.08696 | 19.85058 | 1181 ft | 77 kts | 257° |
| 2026-05-05 16:11 | 50.08593 | 19.84251 | 1129 ft | 76 kts | 254° |
| 2026-05-05 16:11 | 50.08257 | 19.81909 | 1003 ft | 77 kts | 256° |
| 2026-05-05 16:12 | 50.08133 | 19.81068 | 955 ft | 81 kts | 256° |
| 2026-05-05 16:12 | 50.07918 | 19.79504 | 783 ft | 64 kts | 259° |
| 2026-05-05 16:13 | 50.07540 | 19.76771 | 1185 ft | 96 kts | 252° |
| 2026-05-05 16:13 | 50.07345 | 19.75743 | 1331 ft | 107 kts | 234° |
| 2026-05-05 16:13 | 50.06624 | 19.75238 | 1317 ft | 125 kts | 180° |
| 2026-05-05 16:14 | 50.05156 | 19.76439 | 1421 ft | 140 kts | 113° |
| 2026-05-05 16:14 | 50.05456 | 19.79495 | 1550 ft | 136 kts | 81° |
| 2026-05-05 16:15 | 50.05927 | 19.82323 | 1774 ft | 136 kts | 80° |
| 2026-05-05 16:15 | 50.06418 | 19.85244 | 1902 ft | 146 kts | 78° |
| 2026-05-05 16:16 | 50.07682 | 19.87519 | 1870 ft | 153 kts | 360° |
| 2026-05-05 16:16 | 50.08827 | 19.86011 | 1501 ft | 110 kts | 265° |
| 2026-05-05 16:17 | 50.08568 | 19.83938 | 1250 ft | 93 kts | 252° |
| 2026-05-05 16:17 | 50.08420 | 19.82921 | 1124 ft | 98 kts | 252° |
| 2026-05-05 16:18 | 50.08123 | 19.80981 | 899 ft | 87 kts | 257° |
| 2026-05-05 16:18 | 50.08003 | 19.80088 | 819 ft | 81 kts | 257° |
| 2026-05-05 16:18 | 50.07765 | 19.78392 | 879 ft | 90 kts | 256° |
| 2026-05-05 16:19 | 50.07624 | 19.77407 | 1040 ft | 96 kts | 256° |
| 2026-05-05 16:19 | 50.07487 | 19.76338 | 1213 ft | 103 kts | 256° |
| 2026-05-05 16:19 | 50.08463 | 19.74852 | 1471 ft | 126 kts | 349° |
| 2026-05-05 16:20 | 50.10056 | 19.75528 | 1772 ft | 134 kts | 63° |
| 2026-05-05 16:20 | 50.10547 | 19.78401 | 1923 ft | 141 kts | 79° |
| 2026-05-05 16:21 | 50.10959 | 19.81103 | 1828 ft | 114 kts | 83° |
| 2026-05-05 16:22 | 50.11542 | 19.85390 | 1755 ft | 149 kts | 83° |
| 2026-05-05 16:22 | 50.11142 | 19.87797 | 1629 ft | 109 kts | 170° |
| 2026-05-05 16:23 | 50.09756 | 19.87843 | 1576 ft | 95 kts | 213° |
| 2026-05-05 16:23 | 50.09265 | 19.87062 | 1380 ft | 107 kts | 234° |
| 2026-05-05 16:23 | 50.08692 | 19.84814 | 1189 ft | 111 kts | 252° |
| 2026-05-05 16:24 | 50.08504 | 19.83662 | 1137 ft | 110 kts | 253° |
| 2026-05-05 16:24 | 50.08327 | 19.82501 | 1113 ft | 107 kts | 248° |
| 2026-05-05 16:24 | 50.07124 | 19.81066 | 1340 ft | 121 kts | 208° |
| 2026-05-05 16:25 | 50.06409 | 19.80385 | 1406 ft | 122 kts | 218° |
| 2026-05-05 16:25 | 50.05580 | 19.77974 | 1406 ft | 134 kts | 258° |
| 2026-05-05 16:25 | 50.05351 | 19.76824 | 1477 ft | 103 kts | 203° |
| 2026-05-05 16:26 | 50.05260 | 19.79078 | 1344 ft | 117 kts | 81° |
| 2026-05-05 16:26 | 50.05581 | 19.81375 | 1376 ft | 117 kts | 79° |
| 2026-05-05 16:27 | 50.05798 | 19.82667 | 1447 ft | 127 kts | 77° |
| 2026-05-05 16:27 | 50.06038 | 19.84025 | 1575 ft | 134 kts | 78° |
| 2026-05-05 16:27 | 50.06258 | 19.85366 | 1628 ft | 131 kts | 81° |
| 2026-05-05 16:27 | 50.06349 | 19.86747 | 1719 ft | 116 kts | 111° |
| 2026-05-05 16:28 | 50.05896 | 19.87554 | 1671 ft | 94 kts | 164° |
| 2026-05-05 16:28 | 50.05245 | 19.87428 | 1602 ft | 110 kts | 210° |
| 2026-05-05 16:28 | 50.04726 | 19.86491 | 1700 ft | 119 kts | 244° |
| 2026-05-05 16:28 | 50.04734 | 19.85174 | 1804 ft | 129 kts | 287° |
| 2026-05-05 16:29 | 50.05377 | 19.84129 | 1864 ft | 146 kts | 327° |
| 2026-05-05 16:29 | 50.06414 | 19.84092 | 1745 ft | 163 kts | 26° |
| 2026-05-05 16:29 | 50.06977 | 19.85515 | 1809 ft | 155 kts | 82° |
| 2026-05-05 16:29 | 50.06760 | 19.86993 | 1885 ft | 138 kts | 133° |
| 2026-05-05 16:30 | 50.05940 | 19.87570 | 1839 ft | 131 kts | 185° |
| 2026-05-05 16:30 | 50.05165 | 19.86875 | 1758 ft | 137 kts | 231° |
| 2026-05-05 16:30 | 50.04982 | 19.85450 | 1616 ft | 135 kts | 277° |
| 2026-05-05 16:30 | 50.05413 | 19.84279 | 1568 ft | 125 kts | 310° |
| 2026-05-05 16:31 | 50.06293 | 19.83768 | 1553 ft | 150 kts | 354° |
| 2026-05-05 16:31 | 50.07225 | 19.84472 | 1567 ft | 158 kts | 56° |
| 2026-05-05 16:31 | 50.07460 | 19.86064 | 1625 ft | 148 kts | 101° |
| 2026-05-05 16:31 | 50.07041 | 19.87495 | 1536 ft | 146 kts | 137° |
| 2026-05-05 16:32 | 50.06228 | 19.88244 | 1572 ft | 132 kts | 174° |
| 2026-05-05 16:32 | 50.05392 | 19.87912 | 1504 ft | 128 kts | 221° |
| 2026-05-05 16:32 | 50.05040 | 19.86690 | 1565 ft | 132 kts | 264° |
| 2026-05-05 16:32 | 50.05301 | 19.85323 | 1644 ft | 129 kts | 298° |
| 2026-05-05 16:33 | 50.05932 | 19.84448 | 1561 ft | 117 kts | 324° |
| 2026-05-05 16:33 | 50.06681 | 19.84542 | 1573 ft | 134 kts | 56° |
| 2026-05-05 16:33 | 50.06977 | 19.85935 | 1638 ft | 131 kts | 85° |
| 2026-05-05 16:33 | 50.06806 | 19.87104 | 1654 ft | 109 kts | 134° |
| 2026-05-05 16:34 | 50.06193 | 19.87824 | 1610 ft | 112 kts | 168° |
| 2026-05-05 16:34 | 50.05426 | 19.87813 | 1482 ft | 115 kts | 208° |
| 2026-05-05 16:34 | 50.04916 | 19.86856 | 1397 ft | 123 kts | 251° |
| 2026-05-05 16:34 | 50.05006 | 19.85492 | 1455 ft | 132 kts | 284° |
| 2026-05-05 16:35 | 50.05608 | 19.84431 | 1463 ft | 138 kts | 327° |
| 2026-05-05 16:35 | 50.06564 | 19.84257 | 1517 ft | 143 kts | 10° |
| 2026-05-05 16:35 | 50.07344 | 19.85118 | 1549 ft | 139 kts | 63° |
| 2026-05-05 16:35 | 50.07429 | 19.86459 | 1700 ft | 122 kts | 117° |
| 2026-05-05 16:36 | 50.07079 | 19.87656 | 1711 ft | 133 kts | 105° |
| 2026-05-05 16:36 | 50.07174 | 19.89141 | 1647 ft | 137 kts | 82° |
| 2026-05-05 16:36 | 50.07542 | 19.90404 | 1642 ft | 134 kts | 34° |
| 2026-05-05 16:36 | 50.08437 | 19.90578 | 1655 ft | 128 kts | 340° |
| 2026-05-05 16:37 | 50.09047 | 19.89716 | 1574 ft | 121 kts | 288° |
| 2026-05-05 16:37 | 50.09197 | 19.88433 | 1435 ft | 123 kts | 261° |
| 2026-05-05 16:37 | 50.09049 | 19.87054 | 1383 ft | 132 kts | 253° |
| 2026-05-05 16:37 | 50.08831 | 19.85682 | 1356 ft | 122 kts | 251° |
| 2026-05-05 16:38 | 50.08643 | 19.84504 | 1229 ft | 104 kts | 253° |
| 2026-05-05 16:38 | 50.08505 | 19.83470 | 1161 ft | 94 kts | 251° |
| 2026-05-05 16:38 | 50.08372 | 19.82488 | 1087 ft | 91 kts | 248° |
| 2026-05-05 16:38 | 50.08218 | 19.81574 | 981 ft | 84 kts | 252° |
| 2026-05-05 16:39 | 50.08096 | 19.80709 | 888 ft | 79 kts | 251° |
| 2026-05-05 16:39 | 50.07978 | 19.79898 | 794 ft | 74 kts | 252° |
| 2026-05-05 16:39 | 50.07857 | 19.79152 | 783 ft | 80 kts | 255° |
| 2026-05-05 16:39 | 50.07743 | 19.78217 | 915 ft | 93 kts | 252° |
| 2026-05-05 16:40 | 50.07599 | 19.77199 | 1076 ft | 100 kts | 251° |
| 2026-05-05 16:40 | 50.07629 | 19.76083 | 1254 ft | 116 kts | 291° |
| 2026-05-05 16:40 | 50.08279 | 19.75243 | 1329 ft | 131 kts | 343° |
| 2026-05-05 16:40 | 50.09201 | 19.75067 | 1403 ft | 135 kts | 359° |
| 2026-05-05 16:41 | 50.09884 | 19.75840 | 1480 ft | 130 kts | 77° |
| 2026-05-05 16:41 | 50.10049 | 19.77280 | 1433 ft | 138 kts | 82° |
| 2026-05-05 16:41 | 50.10218 | 19.78766 | 1478 ft | 139 kts | 83° |
| 2026-05-05 16:41 | 50.10399 | 19.80249 | 1592 ft | 141 kts | 81° |
| 2026-05-05 16:42 | 50.10582 | 19.81764 | 1695 ft | 143 kts | 83° |
| 2026-05-05 16:42 | 50.10788 | 19.83241 | 1850 ft | 140 kts | 81° |
| 2026-05-05 16:42 | 50.10998 | 19.84753 | 1909 ft | 146 kts | 82° |
| 2026-05-05 16:42 | 50.11196 | 19.86362 | 1868 ft | 155 kts | 82° |
| 2026-05-05 16:43 | 50.11398 | 19.88010 | 1834 ft | 155 kts | 84° |
| 2026-05-05 16:43 | 50.11491 | 19.89653 | 1864 ft | 148 kts | 109° |
| 2026-05-05 16:43 | 50.10831 | 19.90688 | 1827 ft | 136 kts | 171° |
| 2026-05-05 16:43 | 50.09920 | 19.90779 | 1802 ft | 131 kts | 208° |
| 2026-05-05 16:44 | 50.09745 | 19.89476 | 1674 ft | 141 kts | 276° |
| 2026-05-05 16:44 | 50.09419 | 19.88195 | 1620 ft | 119 kts | 229° |
| 2026-05-05 16:44 | 50.09012 | 19.87241 | 1569 ft | 95 kts | 244° |
| 2026-05-05 16:44 | 50.08870 | 19.86274 | 1481 ft | 91 kts | 254° |
| 2026-05-05 16:45 | 50.08778 | 19.85321 | 1413 ft | 86 kts | 251° |
| 2026-05-05 16:45 | 50.08635 | 19.84458 | 1312 ft | 80 kts | 251° |
| 2026-05-05 16:45 | 50.08501 | 19.83605 | 1228 ft | 82 kts | 250° |
| 2026-05-05 16:45 | 50.08391 | 19.82730 | 1170 ft | 83 kts | 247° |
| 2026-05-05 16:46 | 50.08265 | 19.81888 | 1083 ft | 76 kts | 252° |
| 2026-05-05 16:46 | 50.08153 | 19.81113 | 1012 ft | 72 kts | 252° |
| 2026-05-05 16:46 | 50.08044 | 19.80353 | 900 ft | 77 kts | 251° |
| 2026-05-05 16:46 | 50.07923 | 19.79525 | 792 ft | 75 kts | 251° |
| 2026-05-05 16:47 | 50.07808 | 19.78777 | 784 ft | 77 kts | 257° |
| 2026-05-05 16:47 | 50.07694 | 19.77879 | 929 ft | 90 kts | 252° |
| 2026-05-05 16:47 | 50.07556 | 19.76893 | 1101 ft | 97 kts | 251° |
| 2026-05-05 16:47 | 50.07312 | 19.75905 | 1275 ft | 100 kts | 222° |
| 2026-05-05 16:48 | 50.06642 | 19.75620 | 1366 ft | 113 kts | 167° |
| 2026-05-05 16:48 | 50.05856 | 19.75919 | 1463 ft | 119 kts | 162° |
| 2026-05-05 16:48 | 50.05425 | 19.77010 | 1462 ft | 137 kts | 89° |
| 2026-05-05 16:48 | 50.05619 | 19.78455 | 1576 ft | 134 kts | 81° |
| 2026-05-05 16:49 | 50.05844 | 19.79856 | 1717 ft | 134 kts | 76° |
| 2026-05-05 16:49 | 50.06056 | 19.81284 | 1816 ft | 137 kts | 79° |
| 2026-05-05 16:49 | 50.06290 | 19.82745 | 1904 ft | 141 kts | 78° |
| 2026-05-05 16:49 | 50.06494 | 19.84267 | 2008 ft | 144 kts | 81° |
| 2026-05-05 16:50 | 50.06718 | 19.85798 | 2050 ft | 150 kts | 79° |
| 2026-05-05 16:50 | 50.06963 | 19.87325 | 1968 ft | 135 kts | 79° |
| 2026-05-05 16:50 | 50.07403 | 19.88549 | 1889 ft | 141 kts | 36° |
| 2026-05-05 16:50 | 50.08370 | 19.88857 | 1789 ft | 148 kts | 347° |
| 2026-05-05 16:51 | 50.09094 | 19.87922 | 1684 ft | 142 kts | 281° |
| 2026-05-05 16:51 | 50.08972 | 19.86566 | 1509 ft | 115 kts | 250° |
| 2026-05-05 16:51 | 50.08780 | 19.85431 | 1423 ft | 104 kts | 250° |
| 2026-05-05 16:51 | 50.08623 | 19.84376 | 1296 ft | 94 kts | 253° |
| 2026-05-05 16:52 | 50.08531 | 19.83775 | 1268 ft | 83 kts | 251° |
| 2026-05-05 16:52 | 50.08416 | 19.82896 | 1228 ft | 83 kts | 250° |
| 2026-05-05 16:52 | 50.08289 | 19.82011 | 1109 ft | 84 kts | 250° |
| 2026-05-05 16:52 | 50.08157 | 19.81155 | 999 ft | 79 kts | 252° |
| 2026-05-05 16:53 | 50.08037 | 19.80331 | 883 ft | 76 kts | 252° |
| 2026-05-05 16:53 | 50.07932 | 19.79563 | 789 ft | 68 kts | 251° |
| 2026-05-05 16:53 | 50.07823 | 19.78872 | 784 ft | 75 kts | 256° |
| 2026-05-05 16:53 | 50.07703 | 19.77941 | 878 ft | 94 kts | 252° |
| 2026-05-05 16:54 | 50.07557 | 19.76907 | 1036 ft | 102 kts | 252° |
| 2026-05-05 16:54 | 50.07353 | 19.75828 | 1154 ft | 107 kts | 224° |
| 2026-05-05 16:54 | 50.06629 | 19.75539 | 1164 ft | 122 kts | 168° |
| 2026-05-05 16:54 | 50.05824 | 19.75860 | 1326 ft | 120 kts | 162° |
| 2026-05-05 16:55 | 50.05381 | 19.76940 | 1259 ft | 140 kts | 88° |
| 2026-05-05 16:55 | 50.05594 | 19.78416 | 1316 ft | 136 kts | 80° |
| 2026-05-05 16:55 | 50.05821 | 19.79801 | 1468 ft | 130 kts | 79° |
| 2026-05-05 16:55 | 50.06022 | 19.81180 | 1535 ft | 132 kts | 81° |
| 2026-05-05 16:56 | 50.06213 | 19.82608 | 1630 ft | 137 kts | 81° |
| 2026-05-05 16:56 | 50.06402 | 19.84079 | 1743 ft | 141 kts | 81° |
| 2026-05-05 16:56 | 50.06599 | 19.85583 | 1804 ft | 142 kts | 81° |
| 2026-05-05 16:56 | 50.06875 | 19.87040 | 1920 ft | 142 kts | 58° |
| 2026-05-05 16:57 | 50.07676 | 19.87972 | 1854 ft | 151 kts | 12° |
| 2026-05-05 16:57 | 50.08715 | 19.87871 | 1703 ft | 152 kts | 330° |
| 2026-05-05 16:57 | 50.09037 | 19.86601 | 1508 ft | 125 kts | 253° |
| 2026-05-05 16:57 | 50.08812 | 19.85293 | 1473 ft | 132 kts | 249° |
| 2026-05-05 16:58 | 50.08563 | 19.83945 | 1343 ft | 121 kts | 252° |
| 2026-05-05 16:58 | 50.08382 | 19.82725 | 1185 ft | 114 kts | 251° |
| 2026-05-05 16:58 | 50.08223 | 19.81562 | 1019 ft | 105 kts | 253° |
| 2026-05-05 16:58 | 50.08076 | 19.80540 | 929 ft | 91 kts | 252° |
| 2026-05-05 16:59 | 50.07929 | 19.79560 | 796 ft | 92 kts | 253° |
| 2026-05-05 16:59 | 50.07793 | 19.78647 | 838 ft | 87 kts | 252° |
| 2026-05-05 16:59 | 50.07600 | 19.77741 | 1007 ft | 92 kts | 228° |
| 2026-05-05 16:59 | 50.07002 | 19.77441 | 1138 ft | 101 kts | 169° |
| 2026-05-05 17:00 | 50.06297 | 19.77678 | 1291 ft | 105 kts | 166° |
| 2026-05-05 17:00 | 50.05680 | 19.78237 | 1383 ft | 115 kts | 118° |
| 2026-05-05 17:00 | 50.05780 | 19.79553 | 1361 ft | 130 kts | 75° |
| 2026-05-05 17:00 | 50.05986 | 19.80901 | 1392 ft | 127 kts | 79° |
| 2026-05-05 17:01 | 50.06214 | 19.82227 | 1478 ft | 126 kts | 77° |
| 2026-05-05 17:01 | 50.06459 | 19.83556 | 1555 ft | 131 kts | 77° |
| 2026-05-05 17:01 | 50.06706 | 19.84944 | 1621 ft | 134 kts | 78° |
| 2026-05-05 17:01 | 50.06955 | 19.86362 | 1672 ft | 137 kts | 78° |
| 2026-05-05 17:02 | 50.07188 | 19.87792 | 1704 ft | 139 kts | 66° |
| 2026-05-05 17:02 | 50.07893 | 19.88812 | 1686 ft | 145 kts | 20° |
| 2026-05-05 17:02 | 50.08866 | 19.88804 | 1682 ft | 145 kts | 326° |
| 2026-05-05 17:02 | 50.09104 | 19.87505 | 1613 ft | 127 kts | 253° |
| 2026-05-05 17:03 | 50.08902 | 19.86306 | 1496 ft | 107 kts | 251° |
| 2026-05-05 17:03 | 50.08735 | 19.85211 | 1395 ft | 102 kts | 252° |
| 2026-05-05 17:03 | 50.08591 | 19.84160 | 1261 ft | 97 kts | 253° |
| 2026-05-05 17:03 | 50.08448 | 19.83163 | 1151 ft | 93 kts | 251° |
| 2026-05-05 17:04 | 50.08318 | 19.82169 | 1073 ft | 95 kts | 250° |
| 2026-05-05 17:04 | 50.08161 | 19.81186 | 949 ft | 90 kts | 253° |
| 2026-05-05 17:04 | 50.08029 | 19.80264 | 850 ft | 84 kts | 252° |
| 2026-05-05 17:04 | 50.07904 | 19.79401 | 782 ft | 79 kts | 252° |
| 2026-05-05 17:05 | 50.07762 | 19.78469 | 838 ft | 96 kts | 246° |
| 2026-05-05 17:05 | 50.07277 | 19.77811 | 981 ft | 100 kts | 190° |
| 2026-05-05 17:05 | 50.06554 | 19.78047 | 1067 ft | 112 kts | 163° |
| 2026-05-05 17:05 | 50.05995 | 19.78933 | 1130 ft | 126 kts | 109° |
| 2026-05-05 17:06 | 50.06087 | 19.80299 | 1147 ft | 133 kts | 75° |
| 2026-05-05 17:06 | 50.06357 | 19.81662 | 1327 ft | 126 kts | 77° |
| 2026-05-05 17:06 | 50.06615 | 19.82974 | 1460 ft | 130 kts | 77° |
| 2026-05-05 17:06 | 50.06969 | 19.84251 | 1494 ft | 126 kts | 46° |
| 2026-05-05 17:07 | 50.07772 | 19.84497 | 1415 ft | 118 kts | 341° |
| 2026-05-05 17:07 | 50.08376 | 19.83841 | 1280 ft | 99 kts | 289° |
| 2026-05-05 17:07 | 50.08387 | 19.82849 | 1175 ft | 92 kts | 251° |
| 2026-05-05 17:07 | 50.08258 | 19.81862 | 1054 ft | 94 kts | 250° |
| 2026-05-05 17:08 | 50.08123 | 19.80902 | 928 ft | 86 kts | 253° |
| 2026-05-05 17:08 | 50.07995 | 19.80039 | 821 ft | 78 kts | 250° |
| 2026-05-05 17:08 | 50.07903 | 19.79414 | 781 ft | 36 kts | 257° |
| 2026-05-05 17:08 | 50.07848 | 19.79114 | 782 ft | 19 kts | 224° |
| 2026-05-05 17:09 | 50.07733 | 19.79096 | 782 ft | 3 kts | 166° |
| 2026-05-05 17:09 | 50.07731 | 19.79097 | 782 ft | 2 kts | 168° |
| 2026-05-05 17:10 | 50.07661 | 19.79119 | 782 ft | 16 kts | 170° |
| 2026-05-05 17:10 | 50.07618 | 19.79162 | 782 ft | 8 kts | 103° |
| 2026-05-05 17:10 | 50.07634 | 19.79305 | 781 ft | 18 kts | 77° |
| 2026-05-05 17:10 | 50.07668 | 19.79554 | 781 ft | 28 kts | 78° |
| 2026-05-05 17:11 | 50.07700 | 19.79780 | 781 ft | 15 kts | 77° |
| 2026-05-05 17:11 | 50.07706 | 19.79824 | 781 ft | 4 kts | 88° |
| 2026-05-05 17:11 | 50.07680 | 19.79875 | 781 ft | 11 kts | 158° |
| 2026-05-05 17:11 | 50.07614 | 19.79911 | 782 ft | 3 kts | 131° |
| 2026-05-05 17:12 | 50.07608 | 19.79939 | 782 ft | 6 kts | 92° |
| 2026-05-05 17:12 | 50.07623 | 19.80064 | 782 ft | 15 kts | 78° |
| 2026-05-05 17:12 | 50.07636 | 19.80125 | 782 ft | 5 kts | 41° |
| 2026-05-05 17:12 | 50.07693 | 19.80120 | 782 ft | 5 kts | 350° |
| 2026-05-05 17:13 | 50.07694 | 19.80120 | 782 ft | 0 kts | 349° |